This demonstration page uses our WeatherBlox Daily Observations layout. Learn more.

41.55636, -103.73856

Hourly Observations for May 21, 2015

Temp ( °F °C ) Dew Point ( °F °C ) Humidity (%) Winds ( mph kmh ) Pressure ( in mb ) Visibility ( mi km ) Precip ( " mm )
12:53 am 00:53 Cloudy 41 5 36 2 81 81 ESE 5 7 30.33 1027 10 16.09344 0 0
1:53 am 01:53 Cloudy 41 5 36 2 81 81 ESE 6 9 30.33 1027 10 16.09344 0 0
2:53 am 02:53 Cloudy 41 5 36 2 81 81 ESE 8 13 30.3 1026 10 16.09344 0 0
3:53 am 03:53 Cloudy 41 5 36 2 81 81 ESE 7 11 30.3 1026 10 16.09344 0 0
4:53 am 04:53 Cloudy 41 5 36 2 81 81 ESE 8 13 30.3 1026 10 16.09344 0 0
5:53 am 05:53 Cloudy 41 5 36 2 81 81 ESE 7 11 30.3 1026 10 16.09344 0 0
6:53 am 06:53 Cloudy 43 6 37 3 81 81 ESE 9 15 30.3 1026 10 16.09344 0 0
7:53 am 07:53 Cloudy 43 6 37 3 81 81 E 8 13 30.3 1026 10 16.09344 0 0
8:53 am 08:53 Cloudy 46 8 39 4 76 76 SE 9 15 30.27 1025 10 16.09344 0 0
9:53 am 09:53 Cloudy 48 9 39 4 71 71 N 7 11 30.21 1023 10 16.09344 0 0
10:53 am 10:53 Cloudy 52 11 39 4 62 62 SE 8 13 30.18 1022 10 16.09344 0 0
11:44 am 11:44 Cloudy 54 12 39 4 58 58 SSE 8 13 30.12 1020 10 16.09344 0 0
11:53 am 11:53 Cloudy 54 12 39 4 58 58 SSE 10 17 30.12 1020 10 16.09344 0 0
12:53 pm 12:53 Cloudy 54 12 39 4 58 58 SE 12 19 30.12 1020 10 16.09344 0 0
1:53 pm 13:53 Cloudy 55 13 43 6 63 63 ESE 15 24 30.12 1020 10 16.09344 0 0
2:53 pm 14:53 Cloudy 55 13 43 6 63 63 ESE 15 24 30.09 1019 10 16.09344 0 0
3:53 pm 15:53 Cloudy 55 13 43 6 63 63 S 14 22 30.09 1019 10 16.09344 0 0
4:53 pm 16:53 Cloudy 55 13 43 6 63 63 SSE 10 17 30.03 1017 10 16.09344 0 0
5:53 pm 17:53 Cloudy 55 13 43 6 63 63 ESE 14 22 30.03 1017 10 16.09344 0 0
6:53 pm 18:53 Cloudy 55 13 45 7 67 67 ESE 14 22 30.03 1017 10 16.09344 0 0
7:53 pm 19:53 Cloudy 54 12 45 7 72 72 ESE 12 19 30.06 1018 10 16.09344 0 0
8:53 pm 20:53 Cloudy 54 12 45 7 72 72 ESE 13 20 30.06 1018 10 16.09344 0 0
9:53 pm 21:53 Cloudy 52 11 45 7 77 77 ESE 15 24 30.06 1018 10 16.09344 0 0
10:53 pm 22:53 Cloudy 52 11 45 7 77 77 SE 13 20 30.06 1018 10 16.09344 0 0
11:53 pm 23:53 Cloudy 52 11 45 7 77 77 ESE 13 20 30.06 1018 10 16.09344 0 0

Powered by AerisWeather